PIB weather

Hattiesburg Laurel Regional Airport
Hattiesburg/Laurel, Mississippi, United States

Public forecast

Using degrees Fahrenheit for public forecast. Weather courtesy of forecast.io.

METAR (pilot weather report)

Retrieved 2019/07/18 17:56 UTC (30 minutes ago):

KPIB 181756Z AUTO 00000KT 10SM SCT037 SCT060 BKN080 33/25 A3009 RMK AO2 SLP187 T03280250 10328 20250 58002

TAF (pilot weather forecast)

Retrieved 2019/07/18 18:21 UTC (5 minutes ago):

TAF KPIB 181720Z 1818/1918 28005KT P6SM SCT250 FM190300 00000KT P6SM FEW250 FM191400 28004KT P6SM FEW100